sensor_id;sensor_type;location;lat;lon;timestamp;pressure;altitude;pressure_sealevel;temperature;humidity
12073;BME280;6098;49.004;8.372;2023-07-31T00:08:31;100386.88;;;19.77;64.04
12073;BME280;6098;49.004;8.372;2023-07-31T00:23:22;100372.13;;;19.59;65.04
12073;BME280;6098;49.004;8.372;2023-07-31T00:38:14;100357.80;;;19.48;65.22
12073;BME280;6098;49.004;8.372;2023-07-31T00:53:06;100345.77;;;19.29;65.23
12073;BME280;6098;49.004;8.372;2023-07-31T01:08:05;100333.50;;;19.19;66.01
12073;BME280;6098;49.004;8.372;2023-07-31T01:23:13;100323.51;;;19.03;65.99
12073;BME280;6098;49.004;8.372;2023-07-31T01:38:04;100331.54;;;18.98;66.22
12073;BME280;6098;49.004;8.372;2023-07-31T01:52:56;100312.94;;;18.89;67.30
12073;BME280;6098;49.004;8.372;2023-07-31T02:07:47;100292.83;;;18.77;66.91
12073;BME280;6098;49.004;8.372;2023-07-31T02:22:40;100285.20;;;18.77;66.43
12073;BME280;6098;49.004;8.372;2023-07-31T02:37:34;100270.95;;;18.70;66.52
12073;BME280;6098;49.004;8.372;2023-07-31T02:52:26;100271.64;;;18.61;66.32
12073;BME280;6098;49.004;8.372;2023-07-31T03:07:18;100272.03;;;18.56;66.63
12073;BME280;6098;49.004;8.372;2023-07-31T03:22:10;100268.09;;;18.54;67.01
12073;BME280;6098;49.004;8.372;2023-07-31T03:37:04;100264.15;;;18.47;66.94
12073;BME280;6098;49.004;8.372;2023-07-31T03:51:57;100259.81;;;18.45;67.00
12073;BME280;6098;49.004;8.372;2023-07-31T04:06:50;100265.88;;;18.48;66.40
12073;BME280;6098;49.004;8.372;2023-07-31T04:21:41;100259.65;;;18.48;66.53
12073;BME280;6098;49.004;8.372;2023-07-31T04:36:33;100248.75;;;18.50;66.32
12073;BME280;6098;49.004;8.372;2023-07-31T04:51:25;100251.44;;;18.50;66.29
12073;BME280;6098;49.004;8.372;2023-07-31T05:06:17;100245.59;;;18.56;66.43
12073;BME280;6098;49.004;8.372;2023-07-31T05:21:09;100246.72;;;18.65;66.15
12073;BME280;6098;49.004;8.372;2023-07-31T05:36:06;100240.34;;;18.90;65.57
12073;BME280;6098;49.004;8.372;2023-07-31T05:50:58;100248.88;;;19.13;65.81
12073;BME280;6098;49.004;8.372;2023-07-31T06:05:52;100228.89;;;19.28;65.08
12073;BME280;6098;49.004;8.372;2023-07-31T06:20:46;100229.25;;;19.58;64.89
12073;BME280;6098;49.004;8.372;2023-07-31T06:35:39;100229.48;;;19.89;63.21
12073;BME280;6098;49.004;8.372;2023-07-31T06:50:31;100230.82;;;20.00;61.84
12073;BME280;6098;49.004;8.372;2023-07-31T07:05:24;100212.47;;;20.00;61.64
12073;BME280;6098;49.004;8.372;2023-07-31T07:20:16;100203.64;;;20.14;61.78
12073;BME280;6098;49.004;8.372;2023-07-31T07:35:08;100198.79;;;20.46;61.15
12073;BME280;6098;49.004;8.372;2023-07-31T07:50:02;100180.61;;;20.65;59.71
12073;BME280;6098;49.004;8.372;2023-07-31T08:04:55;100192.13;;;20.83;59.55
12073;BME280;6098;49.004;8.372;2023-07-31T08:19:48;100179.20;;;20.97;58.49
12073;BME280;6098;49.004;8.372;2023-07-31T08:34:41;100183.37;;;21.12;58.10
12073;BME280;6098;49.004;8.372;2023-07-31T08:49:33;100149.03;;;21.29;57.19
12073;BME280;6098;49.004;8.372;2023-07-31T09:04:28;100134.90;;;21.67;55.85
12073;BME280;6098;49.004;8.372;2023-07-31T09:19:32;100107.65;;;22.10;56.39
12073;BME280;6098;49.004;8.372;2023-07-31T09:34:30;100091.78;;;22.55;54.74
12073;BME280;6098;49.004;8.372;2023-07-31T09:49:24;100082.20;;;22.75;53.63
12073;BME280;6098;49.004;8.372;2023-07-31T10:04:19;100084.97;;;22.89;52.79
12073;BME280;6098;49.004;8.372;2023-07-31T10:19:11;100070.28;;;23.10;51.96
12073;BME280;6098;49.004;8.372;2023-07-31T10:34:03;100080.05;;;23.03;51.84
12073;BME280;6098;49.004;8.372;2023-07-31T10:48:59;100075.80;;;22.95;52.08
12073;BME280;6098;49.004;8.372;2023-07-31T11:03:51;100055.11;;;23.13;52.22
12073;BME280;6098;49.004;8.372;2023-07-31T11:18:45;100047.95;;;23.63;52.01
12073;BME280;6098;49.004;8.372;2023-07-31T11:33:37;100027.37;;;23.80;51.02
12073;BME280;6098;49.004;8.372;2023-07-31T11:48:30;100032.32;;;23.93;51.46
12073;BME280;6098;49.004;8.372;2023-07-31T12:03:23;100006.39;;;24.09;49.74
12073;BME280;6098;49.004;8.372;2023-07-31T12:18:18;99975.25;;;24.61;49.14
12073;BME280;6098;49.004;8.372;2023-07-31T12:33:14;99964.88;;;24.66;48.08
12073;BME280;6098;49.004;8.372;2023-07-31T12:48:10;99954.41;;;24.36;50.27
12073;BME280;6098;49.004;8.372;2023-07-31T13:03:01;99923.05;;;24.77;50.34
12073;BME280;6098;49.004;8.372;2023-07-31T13:17:55;99910.07;;;24.63;50.18
12073;BME280;6098;49.004;8.372;2023-07-31T13:32:47;99890.31;;;24.49;51.49
12073;BME280;6098;49.004;8.372;2023-07-31T13:47:40;99881.56;;;24.20;51.27
12073;BME280;6098;49.004;8.372;2023-07-31T14:02:32;99873.43;;;24.46;52.93
12073;BME280;6098;49.004;8.372;2023-07-31T14:17:27;99873.90;;;24.25;51.67
12073;BME280;6098;49.004;8.372;2023-07-31T14:32:20;99875.67;;;24.12;52.87
12073;BME280;6098;49.004;8.372;2023-07-31T14:47:04;99839.97;;;24.38;52.19
12073;BME280;6098;49.004;8.372;2023-07-31T15:01:58;99801.66;;;24.50;52.57
12073;BME280;6098;49.004;8.372;2023-07-31T15:16:52;99770.50;;;25.17;51.02
12073;BME280;6098;49.004;8.372;2023-07-31T15:31:50;99763.80;;;25.20;51.47
12073;BME280;6098;49.004;8.372;2023-07-31T15:46:39;99765.75;;;24.69;53.05
12073;BME280;6098;49.004;8.372;2023-07-31T16:01:29;99781.09;;;24.35;55.68
12073;BME280;6098;49.004;8.372;2023-07-31T16:16:24;99770.85;;;24.04;57.30
12073;BME280;6098;49.004;8.372;2023-07-31T16:31:18;99750.52;;;23.83;58.06
12073;BME280;6098;49.004;8.372;2023-07-31T16:46:10;99716.03;;;23.63;60.56
12073;BME280;6098;49.004;8.372;2023-07-31T17:01:02;99712.25;;;23.43;60.38
12073;BME280;6098;49.004;8.372;2023-07-31T17:15:53;99692.09;;;23.38;59.98
12073;BME280;6098;49.004;8.372;2023-07-31T17:30:45;99693.19;;;23.22;62.65
12073;BME280;6098;49.004;8.372;2023-07-31T17:45:37;99685.06;;;23.01;66.37
12073;BME280;6098;49.004;8.372;2023-07-31T18:00:30;99705.44;;;22.78;68.14
12073;BME280;6098;49.004;8.372;2023-07-31T18:15:23;99701.45;;;22.23;76.14
12073;BME280;6098;49.004;8.372;2023-07-31T18:30:18;99708.16;;;22.00;77.23
12073;BME280;6098;49.004;8.372;2023-07-31T18:45:09;99689.59;;;21.73;80.85
12073;BME280;6098;49.004;8.372;2023-07-31T19:00:02;99686.33;;;21.52;84.22
12073;BME280;6098;49.004;8.372;2023-07-31T19:14:54;99679.50;;;21.24;84.38
12073;BME280;6098;49.004;8.372;2023-07-31T19:29:48;99680.90;;;21.00;84.56
12073;BME280;6098;49.004;8.372;2023-07-31T19:44:38;99685.08;;;20.79;84.60
12073;BME280;6098;49.004;8.372;2023-07-31T19:59:35;99675.47;;;20.66;85.51
12073;BME280;6098;49.004;8.372;2023-07-31T20:14:25;99650.02;;;20.55;86.41
12073;BME280;6098;49.004;8.372;2023-07-31T20:29:19;99627.78;;;20.44;87.24
12073;BME280;6098;49.004;8.372;2023-07-31T20:44:11;99592.62;;;20.36;87.78
12073;BME280;6098;49.004;8.372;2023-07-31T20:59:03;99566.20;;;20.30;88.51
12073;BME280;6098;49.004;8.372;2023-07-31T21:13:56;99519.45;;;20.27;89.06
12073;BME280;6098;49.004;8.372;2023-07-31T21:28:49;99493.17;;;20.25;89.14
12073;BME280;6098;49.004;8.372;2023-07-31T21:58:33;99459.36;;;20.17;92.71
12073;BME280;6098;49.004;8.372;2023-07-31T22:13:27;99392.78;;;20.14;93.74
12073;BME280;6098;49.004;8.372;2023-07-31T22:28:18;99370.56;;;20.07;95.53
12073;BME280;6098;49.004;8.372;2023-07-31T22:43:11;99335.02;;;19.99;96.80
12073;BME280;6098;49.004;8.372;2023-07-31T22:58:07;99330.59;;;19.84;96.30
12073;BME280;6098;49.004;8.372;2023-07-31T23:13:02;99349.41;;;19.75;97.40
12073;BME280;6098;49.004;8.372;2023-07-31T23:27:57;99341.59;;;19.72;98.22
12073;BME280;6098;49.004;8.372;2023-07-31T23:42:49;99338.09;;;19.71;96.99
12073;BME280;6098;49.004;8.372;2023-07-31T23:57:43;99299.11;;;19.71;99.27
